createdAt,value
2019-04-11T00:02:26.913Z,2.50
2019-04-11T00:07:20.423Z,2.57
2019-04-11T00:12:14.460Z,2.60
2019-04-11T00:17:07.837Z,2.70
2019-04-11T00:22:01.503Z,2.43
2019-04-11T00:26:54.816Z,2.30
2019-04-11T00:31:48.040Z,2.33
2019-04-11T00:36:40.874Z,2.40
2019-04-11T00:41:34.344Z,2.57
2019-04-11T00:46:28.679Z,2.53
2019-04-11T00:51:36.133Z,3.07
2019-04-11T00:56:36.553Z,2.50
2019-04-11T01:01:29.178Z,2.80
2019-04-11T01:06:22.588Z,2.57
2019-04-11T01:11:16.180Z,2.47
2019-04-11T01:16:26.304Z,2.50
2019-04-11T01:21:20.016Z,2.70
2019-04-11T01:26:12.881Z,2.30
2019-04-11T01:31:07.833Z,2.70
2019-04-11T01:36:01.295Z,2.90
2019-04-11T01:40:54.683Z,2.60
2019-04-11T01:45:48.346Z,2.23
2019-04-11T01:50:41.719Z,2.40
2019-04-11T01:55:36.651Z,2.47
2019-04-11T02:00:39.920Z,2.40
2019-04-11T02:05:32.872Z,2.43
2019-04-11T02:10:26.578Z,2.50
2019-04-11T02:15:19.852Z,2.70
2019-04-11T02:20:12.911Z,2.53
2019-04-11T02:25:30.397Z,2.43
2019-04-11T02:30:23.079Z,2.40
2019-04-11T02:35:17.688Z,2.80
2019-04-11T02:40:11.158Z,2.60
2019-04-11T02:45:19.653Z,3.00
2019-04-11T02:49:57.850Z,2.50
2019-04-11T02:54:52.419Z,2.37
2019-04-11T02:59:46.288Z,2.97
2019-04-11T03:04:39.341Z,2.70
2019-04-11T03:09:31.831Z,2.77
2019-04-11T03:14:25.244Z,2.63
2019-04-11T03:19:33.773Z,2.90
2019-04-11T03:24:13.166Z,2.73
2019-04-11T03:29:06.424Z,2.77
2019-04-11T03:34:53.695Z,3.10
2019-04-11T03:39:11.642Z,2.73
2019-04-11T03:43:58.157Z,3.10
2019-04-11T03:48:50.690Z,3.23
2019-04-11T03:53:34.382Z,3.23
2019-04-11T03:58:26.818Z,3.60
2019-04-11T04:03:20.312Z,2.90
2019-04-11T04:08:13.692Z,3.10
2019-04-11T04:13:13.243Z,2.77
2019-04-11T04:18:19.225Z,2.97
2019-04-11T04:23:16.608Z,3.27
2019-04-11T04:28:10.187Z,3.30
2019-04-11T04:33:04.748Z,3.45
2019-04-11T04:37:57.000Z,3.87
2019-04-11T04:42:53.280Z,3.50
2019-04-11T04:47:49.966Z,3.63
2019-04-11T04:52:38.178Z,3.50
2019-04-11T04:57:31.726Z,3.10
2019-04-11T05:02:25.675Z,3.40
2019-04-11T05:07:17.510Z,3.20
2019-04-11T05:12:11.946Z,3.53
2019-04-11T05:17:04.330Z,3.40
2019-04-11T05:21:57.899Z,3.30
2019-04-11T05:26:52.266Z,3.73
2019-04-11T05:31:44.879Z,3.70
2019-04-11T05:36:38.713Z,3.43
2019-04-11T05:41:31.517Z,4.07
2019-04-11T05:46:33.428Z,4.53
2019-04-11T05:51:21.334Z,3.70
2019-04-11T05:56:13.940Z,4.00
2019-04-11T06:01:20.354Z,3.77
2019-04-11T06:06:26.840Z,3.50
2019-04-11T06:11:48.230Z,3.50
2019-04-11T06:16:48.817Z,4.20
2019-04-11T06:21:40.916Z,3.63
2019-04-11T06:26:52.889Z,4.13
2019-04-11T06:32:09.703Z,4.70
2019-04-11T06:37:21.353Z,4.47
2019-04-11T06:42:45.839Z,3.77
2019-04-11T06:48:01.255Z,3.80
2019-04-11T06:52:54.802Z,3.43
2019-04-11T06:57:49.790Z,3.40
2019-04-11T07:02:45.237Z,3.37
2019-04-11T07:07:40.851Z,3.20
2019-04-11T07:12:55.407Z,3.13
2019-04-11T07:18:07.308Z,3.10
2019-04-11T07:23:15.969Z,3.00
2019-04-11T07:28:16.633Z,3.03
2019-04-11T07:33:28.951Z,3.23
2019-04-11T07:38:29.998Z,2.97
2019-04-11T07:43:29.299Z,2.63
2019-04-11T07:48:35.946Z,2.87
2019-04-11T07:53:28.628Z,2.73
2019-04-11T07:58:28.599Z,2.43
2019-04-11T08:03:40.864Z,2.87
2019-04-11T08:08:52.010Z,2.63
2019-04-11T08:14:20.254Z,2.80
2019-04-11T08:19:31.044Z,2.77
2019-04-11T08:24:34.350Z,2.27
2019-04-11T08:29:27.180Z,1.90
2019-04-11T08:34:21.802Z,2.27
2019-04-11T08:39:24.604Z,2.27
2019-04-11T08:44:20.598Z,2.20
2019-04-11T08:49:19.901Z,1.97
2019-04-11T08:54:23.983Z,1.50
2019-04-11T08:59:44.026Z,1.50
2019-04-11T09:05:13.601Z,1.52
2019-04-11T09:10:19.940Z,1.50
2019-04-11T09:15:37.357Z,1.70
2019-04-11T09:20:48.704Z,1.80
2019-04-11T09:26:01.494Z,1.27
2019-04-11T09:31:14.950Z,1.50
2019-04-11T09:36:26.068Z,1.50
2019-04-11T09:41:38.678Z,1.43
2019-04-11T09:46:48.795Z,1.67
2019-04-11T09:51:58.338Z,1.40
2019-04-11T09:57:26.812Z,1.40
2019-04-11T10:02:41.902Z,1.40
2019-04-11T10:07:57.977Z,1.60
2019-04-11T10:13:08.850Z,1.37
2019-04-11T10:18:27.173Z,1.40
2019-04-11T10:23:29.306Z,1.40
2019-04-11T10:28:45.983Z,1.40
2019-04-11T10:33:55.325Z,1.50
2019-04-11T10:38:48.848Z,1.03
2019-04-11T10:43:43.117Z,1.27
2019-04-11T10:48:47.429Z,1.30
2019-04-11T10:53:41.620Z,1.20
2019-04-11T10:58:38.971Z,1.30
2019-04-11T11:03:55.557Z,1.33
2019-04-11T11:09:02.146Z,1.30
2019-04-11T11:14:14.823Z,1.37
2019-04-11T11:19:43.917Z,1.00
2019-04-11T11:24:29.943Z,1.30
2019-04-11T11:29:40.600Z,1.27
2019-04-11T11:34:41.152Z,2.50
2019-04-11T11:39:55.918Z,1.33
2019-04-11T11:44:53.185Z,1.40
2019-04-11T11:49:55.641Z,1.20
2019-04-11T11:54:43.993Z,1.37
2019-04-11T11:59:48.398Z,1.90
2019-04-11T12:05:10.491Z,1.27
2019-04-11T12:10:28.448Z,1.40
2019-04-11T12:15:37.313Z,1.27
2019-04-11T12:20:36.617Z,1.07
2019-04-11T12:25:36.956Z,1.27
2019-04-11T12:30:44.113Z,1.00
2019-04-11T12:35:48.534Z,1.10
2019-04-11T12:41:12.157Z,1.30
2019-04-11T12:46:29.815Z,1.20
2019-04-11T12:51:36.401Z,1.23
2019-04-11T12:57:05.194Z,1.30
2019-04-11T13:02:16.901Z,1.40
2019-04-11T13:07:32.730Z,1.10
2019-04-11T13:12:51.084Z,0.93
2019-04-11T13:17:49.223Z,1.00
2019-04-11T13:22:42.743Z,1.07
2019-04-11T13:27:40.320Z,1.23
2019-04-11T13:32:50.275Z,1.30
2019-04-11T13:38:03.491Z,1.57
2019-04-11T13:43:13.742Z,1.03
2019-04-11T13:48:25.077Z,1.30
2019-04-11T13:53:36.165Z,1.10
2019-04-11T13:58:47.715Z,1.47
2019-04-11T14:04:00.517Z,1.03
2019-04-11T14:09:22.380Z,1.23
2019-04-11T14:14:18.846Z,1.23
2019-04-11T14:19:31.779Z,1.10
2019-04-11T14:24:43.211Z,1.30
2019-04-11T14:30:10.757Z,1.07
2019-04-11T14:35:23.383Z,0.80
2019-04-11T14:40:24.484Z,1.50
2019-04-11T14:45:36.708Z,1.17
2019-04-11T14:50:41.012Z,1.03
2019-04-11T14:55:40.670Z,1.20
2019-04-11T15:00:36.690Z,1.30
2019-04-11T15:05:44.525Z,1.10
2019-04-11T15:10:51.773Z,1.23
2019-04-11T15:16:03.300Z,1.20
2019-04-11T15:21:14.550Z,1.00
2019-04-11T15:26:27.421Z,1.30
2019-04-11T15:31:39.292Z,1.37
2019-04-11T15:36:27.842Z,1.40
2019-04-11T15:41:19.688Z,1.33
2019-04-11T15:46:17.564Z,1.20
2019-04-11T15:51:35.810Z,1.40
2019-04-11T15:56:49.680Z,1.27
2019-04-11T16:02:02.350Z,1.10
2019-04-11T16:07:24.239Z,1.40
2019-04-11T16:12:26.135Z,1.30
2019-04-11T16:17:53.001Z,1.90
2019-04-11T16:23:05.811Z,2.00
2019-04-11T16:28:17.471Z,2.00
2019-04-11T16:33:25.243Z,1.97
2019-04-11T16:38:20.280Z,2.47
2019-04-11T16:43:13.733Z,2.10
2019-04-11T16:48:07.145Z,1.90
2019-04-11T16:53:00.541Z,2.03
2019-04-11T16:57:53.956Z,2.00
2019-04-11T17:02:47.351Z,2.40
2019-04-11T17:07:58.671Z,2.07
2019-04-11T17:12:53.845Z,1.90
2019-04-11T17:17:45.598Z,2.10
2019-04-11T17:22:38.988Z,2.03
2019-04-11T17:27:32.567Z,1.93
2019-04-11T17:32:26.615Z,1.90
2019-04-11T17:37:19.364Z,2.07
2019-04-11T17:42:13.383Z,2.10
2019-04-11T17:47:06.148Z,1.90
2019-04-11T17:51:59.791Z,2.07
2019-04-11T17:56:54.859Z,2.27
2019-04-11T18:01:46.623Z,2.40
2019-04-11T18:06:40.059Z,2.33
2019-04-11T18:11:33.791Z,2.37
2019-04-11T18:16:28.857Z,2.30
2019-04-11T18:21:20.695Z,2.20
2019-04-11T18:26:14.112Z,2.40
2019-04-11T18:31:07.514Z,2.40
2019-04-11T18:36:02.405Z,2.53
2019-04-11T18:40:54.491Z,2.63
2019-04-11T18:45:48.190Z,2.30
2019-04-11T18:50:41.581Z,2.30
2019-04-11T18:55:35.246Z,2.50
2019-04-11T19:00:28.652Z,2.23
2019-04-11T19:05:28.661Z,2.47
2019-04-11T19:10:15.746Z,2.53
2019-04-11T19:15:09.063Z,2.40
2019-04-11T19:20:02.471Z,2.10
2019-04-11T19:24:55.914Z,2.13
2019-04-11T19:29:49.336Z,2.40
2019-04-11T19:34:42.900Z,2.23
2019-04-11T19:39:36.299Z,2.07
2019-04-11T19:44:29.716Z,2.30
2019-04-11T19:49:23.124Z,2.20
2019-04-11T19:54:16.715Z,2.20
2019-04-11T19:59:10.137Z,2.40
2019-04-11T20:04:03.773Z,2.33
2019-04-11T20:08:57.143Z,2.03
2019-04-11T20:13:50.858Z,1.83
2019-04-11T20:18:50.914Z,1.90
2019-04-11T20:23:41.469Z,2.53
2019-04-11T20:28:31.911Z,2.07
2019-04-11T20:33:27.229Z,2.10
2019-04-11T20:38:18.720Z,2.47
2019-04-11T20:43:12.143Z,2.50
2019-04-11T20:48:05.549Z,2.37
2019-04-11T20:53:03.161Z,2.13
2019-04-11T20:57:52.475Z,2.53
2019-04-11T21:02:45.885Z,2.50
2019-04-11T21:07:39.558Z,2.20
2019-04-11T21:12:37.032Z,2.20
2019-04-11T21:17:26.588Z,2.30
2019-04-11T21:22:23.931Z,1.90
2019-04-11T21:27:13.371Z,2.10
2019-04-11T21:32:06.828Z,2.37
2019-04-11T21:37:02.512Z,2.73
2019-04-11T21:41:54.219Z,2.27
2019-04-11T21:46:49.318Z,2.40
2019-04-11T21:51:42.300Z,2.00
2019-04-11T21:56:34.518Z,2.20
2019-04-11T22:01:27.923Z,2.10
2019-04-11T22:06:21.623Z,2.40
2019-04-11T22:11:15.008Z,2.37
2019-04-11T22:16:13.168Z,2.10
2019-04-11T22:21:02.191Z,2.33
2019-04-11T22:25:55.781Z,2.03
2019-04-11T22:30:49.182Z,2.10
2019-04-11T22:35:42.591Z,2.40
2019-04-11T22:40:35.994Z,1.80
2019-04-11T22:45:29.573Z,2.10
2019-04-11T22:50:22.970Z,1.97
2019-04-11T22:55:16.373Z,2.00
2019-04-11T23:00:09.779Z,2.20
2019-04-11T23:05:03.657Z,1.93
2019-04-11T23:09:57.054Z,2.00
2019-04-11T23:14:50.463Z,1.90
2019-04-11T23:19:44.119Z,1.80
2019-04-11T23:24:37.248Z,2.13
2019-04-11T23:29:30.634Z,2.03
2019-04-11T23:34:24.287Z,2.10
2019-04-11T23:39:17.972Z,1.93
2019-04-11T23:44:11.353Z,2.07
2019-04-11T23:49:04.739Z,2.10
2019-04-11T23:53:59.779Z,1.90
2019-04-11T23:58:51.562Z,2.20
